Tiempo atmosférico en la estación meteorológica de Granada-cartuja, Granada (780 m.)



Fecha
DESCASC
Temp. máxima en grados centígrados (hora)
DESCASC
Temp. mínima en grados centígrados (hora)
DESCASC
Temp. media en grados centígrados
DESCASC
Racha de viento máxima en m/sg (hora)
DESCASC
Velocidad máxima media en intervalos de 10 minutos(hora)
DESCASC
Precipitaciones diarias en mm
DESCASC
Precipitaciones de 00:00 a 06:00 en mm
DESCASC
Precipitaciones de 06:00 a 12:00 en mm
DESCASC
Precipitaciones de 12:00 a 18:00 en mm
DESCASC
Precipitaciones de 18:00 a 24:00 en mm
DESCASC
24-05-2020 32.1 (16:30) 17 (07:40) 24.5 5.56 (17:20) 1.94 (21:40) -- -- -- -- --
23-05-2020 33.2 (16:30) 16.6 (07:10) 24.9 5 (17:30) 2.22 (17:40) -- -- -- -- --
22-05-2020 33.1 (16:40) 15.9 (06:50) 24.5 5.83 (18:00) 1.94 (17:50) -- -- -- -- --
21-05-2020 31.9 (15:30) 14.8 (00:00) 23.3 5.56 (16:20) 2.22 (16:20) -- -- -- -- --
20-05-2020 30.7 (16:10) 13.7 (00:00) 22.2 6.67 (19:20) 2.78 (18:40) -- -- -- -- --
19-05-2020 28.4 (15:40) 12 (00:00) 20.2 4.72 (15:00) 2.22 (16:30) -- -- -- -- --
18-05-2020 25.7 (15:30) 9.2 (00:00) 17.5 6.94 (17:30) 2.22 (17:00) -- -- -- -- --
17-05-2020 19.9 (14:50) 9.8 (00:00) 14.8 7.22 (15:20) 2.78 (15:20) -- -- -- -- --
16-05-2020 20.9 (14:40) 10.6 (00:00) 15.8 5.56 (14:40) 1.94 (14:40) -- -- -- -- --
15-05-2020 18.9 (13:40) 8.3 (00:00) 13.6 5.83 (16:00) 1.67 (11:40) -- -- -- -- --
14-05-2020 16.2 (17:00) 7.9 (00:00) 12.1 6.94 (13:20) 2.5 (14:00) -- -- -- -- --
13-05-2020 21.7 (16:20) 8.9 (00:00) 15.3 7.5 (16:50) 2.78 (16:50) -- -- -- -- --
12-05-2020 16 (18:00) 8.1 (00:00) 12.1 8.61 (13:50) 2.5 (19:00) -- -- -- -- --
11-05-2020 22.5 (14:00) 9.8 (00:00) 16.2 7.5 (17:40) 3.06 (17:40) -- -- -- -- --
10-05-2020 16.6 (16:20) 10.1 (00:00) 13.4 9.72 (17:00) 3.33 (17:00) -- -- -- -- --
09-05-2020 26.2 (15:50) 13.3 (00:00) 19.8 8.06 (17:00) 3.33 (17:00) -- -- -- -- --
08-05-2020 29.9 (16:20) 13.5 (00:00) 21.7 6.39 (15:10) 2.22 (19:30) -- -- -- -- --
07-05-2020 29.3 (15:00) 15.6 (00:00) 22.4 5.56 (16:30) 2.22 (15:40) -- -- -- -- --
06-05-2020 29.4 (16:00) 12.3 (00:00) 20.8 4.72 (16:40) 2.22 (16:40) -- -- -- -- --
05-05-2020 28.8 (15:00) 13.3 (00:00) 21 6.67 (17:20) 2.5 (17:20) -- -- -- -- --
04-05-2020 33.8 (16:20) 17.4 (00:00) 25.6 9.72 (15:40) 3.61 (15:40) -- -- -- -- --
03-05-2020 33.8 (17:40) 13.7 (00:00) 23.7 6.39 (16:10) 2.22 (15:10) -- -- -- -- --
02-05-2020 31.2 (17:50) 11.7 (00:00) 21.5 5.28 (19:40) 1.94 (16:10) -- -- -- -- --
01-05-2020 26.9 (16:30) 9.7 (00:00) 18.3 6.67 (19:40) 2.78 (19:50) -- -- -- -- --
30-04-2020 21.4 (18:00) 7.8 (00:00) 14.6 6.11 (14:20) 2.5 (19:40) -- -- -- -- --
29-04-2020 22.4 (16:30) 7.7 (00:00) 15 7.78 (17:30) 2.78 (18:40) -- -- -- -- --
28-04-2020 20.1 (17:40) 9.3 (00:00) 14.7 7.78 (17:30) 3.06 (18:00) -- 0.4 0.6 -- --

Gráficas

Temp. máximas Temp. mínimas Temp. medias Precipitaciones Rachas de viento máximas Velocidades máximas media en intervalos de 10 minutos

Datos horarios

Fecha y hora oficial Temperatura (ºC) Velocidad del viento (km/h) Dirección del viento Racha (km/h) Dirección de racha Precipitación (mm) Presión (hPa) Tendencia (hPa) Humedad (%)
2020-05-27 23:00:00 20.6 3 Norte 8 Norte -- -- -- 54
2020-05-27 22:00:00 22 4 Norte 12 Norte -- -- -- 50
2020-05-27 21:00:00 24.5 3 Norte 10 Noroeste -- -- -- 43
2020-05-27 20:00:00 26.4 4 Sudoeste 14 Sur -- -- -- 40
2020-05-27 19:00:00 27.7 6 Sur 21 Sur -- -- -- 35
2020-05-27 18:00:00 28.9 5 Sudoeste 16 Oeste -- -- -- 33
2020-05-27 17:00:00 29.9 4 Oeste 24 Sudoeste -- -- -- 32
2020-05-27 16:00:00 29.9 6 Oeste 19 Oeste -- -- -- 32
2020-05-27 15:00:00 29.8 4 Sudoeste 13 Oeste -- -- -- 31
2020-05-27 14:00:00 28.6 5 Sudoeste 13 Sur -- -- -- 36
2020-05-27 13:00:00 26.7 4 Sudoeste 12 Oeste -- -- -- 38
2020-05-27 12:00:00 24.6 5 Sudoeste 12 Oeste -- -- -- 40
2020-05-27 11:00:00 21.3 2 Norte 9 Noroeste -- -- -- 47
2020-05-27 10:00:00 19.1 3 Noroeste 7 Oeste -- -- -- 55
2020-05-27 09:00:00 16.4 2 Sudoeste 9 Sur -- -- -- 61
2020-05-27 08:00:00 16 3 Sudoeste 9 Sudoeste -- -- -- 70
2020-05-27 07:00:00 15.7 0 Calma 5 Nordeste -- -- -- 66
2020-05-27 06:00:00 15.5 2 Este 5 Este -- -- -- 71
2020-05-27 05:00:00 15.8 0 Calma 4 Nordeste -- -- -- 67
2020-05-27 04:00:00 16.2 0 Calma 4 Este -- -- -- 66
2020-05-27 03:00:00 17.1 0 Calma 4 Este -- -- -- 64
2020-05-27 02:00:00 17.8 0 Calma 9 Norte -- -- -- 67
2020-05-27 01:00:00 19.1 5 Nordeste 11 Norte -- -- -- 63
2020-05-27 00:00:00 19.9 6 Nordeste 13 Nordeste -- -- -- 60
2020-05-26 23:00:00 20.6 5 Nordeste 12 Nordeste -- -- -- 57
2020-05-26 22:00:00 22.2 3 Norte 11 Norte -- -- -- 52
2020-05-26 21:00:00 24.6 0 Calma 10 Sudoeste -- -- -- 45
2020-05-26 20:00:00 26.8 3 Oeste 19 Oeste -- -- -- 38
2020-05-26 19:00:00 28.5 5 Oeste 17 Sudoeste -- -- -- 34
2020-05-26 18:00:00 29.1 4 Sudoeste 18 Oeste -- -- -- 32
2020-05-26 17:00:00 29.7 7 Oeste 20 Sudoeste -- -- -- 30
2020-05-26 16:00:00 30.3 6 Sudoeste 17 Sur -- -- -- 30
2020-05-26 15:00:00 29.7 5 Sudoeste 17 Sur -- -- -- 30
2020-05-26 14:00:00 29.5 4 Oeste 12 Sudoeste -- -- -- 28
2020-05-26 13:00:00 27.3 4 Oeste 11 Noroeste -- -- -- 32
2020-05-26 12:00:00 25.3 3 Noroeste 10 Oeste -- -- -- 31
2020-05-26 11:00:00 22.6 3 Noroeste 9 Oeste -- -- -- 36
2020-05-26 10:00:00 19.5 2 Noroeste 5 Norte -- -- -- 49
2020-05-26 09:00:00 16.6 0 Calma 3 Norte -- -- -- 62
2020-05-26 08:00:00 15 0 Calma 5 Este -- -- -- 71
2020-05-26 07:00:00 15 2 Este 4 Este -- -- -- 71
2020-05-26 06:00:00 15.2 3 Este 5 Este -- -- -- 52
2020-05-26 05:00:00 16.8 2 Nordeste 8 Este -- -- -- 52
2020-05-26 04:00:00 16.5 3 Este 5 Este -- -- -- 69
2020-05-26 03:00:00 17.2 3 Este 4 Este -- -- -- 62
2020-05-26 02:00:00 18.1 0 Calma 5 Norte -- -- -- 65
2020-05-26 01:00:00 18.3 0 Calma 10 Norte -- -- -- 65
2020-05-26 00:00:00 18.9 0 Calma 6 Nordeste -- -- -- 60
2020-05-25 23:00:00 19.8 3 Norte 10 Norte -- -- -- 59
2020-05-25 22:00:00 21 6 Norte 18 Norte -- -- -- 57
2020-05-25 21:00:00 24.2 8 Norte 15 Norte -- -- -- 48
2020-05-25 20:00:00 28 4 Sur 16 Sur -- -- -- 27
2020-05-25 19:00:00 29.1 6 Sudoeste 17 Sudoeste -- -- -- 29
2020-05-25 18:00:00 30.5 5 Sudoeste 20 Sudoeste -- -- -- 25
2020-05-25 17:00:00 31.1 6 Sur 21 Sudoeste -- -- -- 23
2020-05-25 16:00:00 31.8 7 Oeste 17 Sudoeste -- -- -- 25
2020-05-25 15:00:00 31.3 4 Oeste 18 Oeste -- -- -- 25
2020-05-25 14:00:00 29.8 6 Noroeste 15 Oeste -- -- -- 24
2020-05-25 13:00:00 28.2 5 Noroeste 17 Norte -- -- -- 33
2020-05-25 12:00:00 26.2 4 Noroeste 13 Norte -- -- -- 35
2020-05-25 11:00:00 23.6 3 Noroeste 17 Norte -- -- -- 42
2020-05-25 10:00:00 20 4 Norte 10 Norte -- -- -- 52
2020-05-25 09:00:00 17.4 0 Calma 7 Nordeste -- -- -- 61
2020-05-25 08:00:00 15.4 0 Calma 4 Este -- -- -- 69
2020-05-25 07:00:00 15.7 2 Nordeste 4 Este -- -- -- 66
2020-05-25 06:00:00 16.5 2 Sudeste 4 Este -- -- -- 60
2020-05-25 05:00:00 16.6 0 Calma 5 Sur -- -- -- 60
2020-05-25 04:00:00 17.1 2 Este 6 Este -- -- -- 59
2020-05-25 03:00:00 17.6 3 Este 6 Este -- -- -- 61
2020-05-25 02:00:00 17.7 0 Calma 5 Este -- -- -- 62
2020-05-25 01:00:00 18.9 2 Este 4 Este -- -- -- 57
2020-05-25 00:00:00 20 0 Calma 9 Nordeste -- -- -- 53
2020-05-24 23:00:00 21.5 5 Norte 10 Nordeste -- -- -- 49
2020-05-24 22:00:00 22.5 6 Norte 15 Norte -- -- -- 48
2020-05-24 21:00:00 25.1 3 Noroeste 8 Oeste -- -- -- 42
2020-05-24 20:00:00 26.9 5 Sur 18 Sudoeste -- -- -- 37
2020-05-24 19:00:00 29.5 6 Sudoeste 18 Sudoeste -- -- -- 34
2020-05-24 18:00:00 30.5 6 Sur 20 Sudoeste -- -- -- 32
2020-05-24 17:00:00 31.2 6 Sudoeste 17 Sudoeste -- -- -- 27
2020-05-24 16:00:00 31.6 5 Oeste 19 Oeste -- -- -- 29
2020-05-24 15:00:00 31.9 5 Sur 17 Sur -- -- -- 30
2020-05-24 14:00:00 29.7 4 Sudeste 14 Oeste -- -- -- 35
2020-05-24 13:00:00 29.4 5 Oeste 16 Oeste -- -- -- 36
2020-05-24 12:00:00 26.9 2 Norte 9 Oeste -- -- -- 37
2020-05-24 11:00:00 24.3 3 Sur 8 Noroeste -- -- -- 42
2020-05-24 10:00:00 21.3 2 Sudoeste 7 Oeste -- -- -- 55
2020-05-24 09:00:00 18.5 0 Calma 4 Sur -- -- -- 60
2020-05-24 08:00:00 17.4 0 Calma 4 Este -- -- -- 61
2020-05-24 07:00:00 17.4 0 Calma 3 Este -- -- -- 55
2020-05-24 06:00:00 18.4 0 Calma 5 Este -- -- -- 53
2020-05-24 05:00:00 19.3 0 Calma 5 Sudeste -- -- -- 48
2020-05-24 04:00:00 19.5 3 Este 6 Este -- -- -- 47
2020-05-24 03:00:00 19.6 4 Este 6 Este -- -- -- 48
2020-05-24 02:00:00 20 0 Calma 6 Este -- -- -- 46
2020-05-24 01:00:00 20.7 0 Calma 5 Este -- -- -- 44
2020-05-24 00:00:00 21.4 0 Calma 6 Norte -- -- -- 41
2020-05-23 23:00:00 22.2 2 Norte 7 Norte -- -- -- 43
2020-05-23 22:00:00 23.9 3 Nordeste 13 Sur -- -- -- 41
2020-05-23 21:00:00 26 4 Sur 14 Sur -- -- -- 35
2020-05-23 20:00:00 28.3 5 Sur 18 Sudoeste -- -- -- 33
2020-05-23 19:00:00 30 6 Sudoeste 15 Sur -- -- -- 31
2020-05-23 18:00:00 31.8 6 Sudoeste 18 Sudoeste -- -- -- 29
2020-05-23 17:00:00 31.7 4 Oeste 14 Sudoeste -- -- -- 28
2020-05-23 16:00:00 32.1 6 Noroeste 17 Oeste -- -- -- 27
2020-05-23 15:00:00 31.9 4 Oeste 11 Noroeste -- -- -- 26
2020-05-23 14:00:00 31 3 Oeste 13 Norte -- -- -- 30
2020-05-23 13:00:00 29.3 5 Noroeste 11 Oeste -- -- -- 29
2020-05-23 12:00:00 27.7 3 Noroeste 9 Noroeste -- -- -- 32
2020-05-23 11:00:00 24.6 2 Noroeste 5 Oeste -- -- -- 39
2020-05-23 10:00:00 21.2 0 Calma 4 Oeste -- -- -- 45
2020-05-23 09:00:00 18.9 0 Calma 4 Norte -- -- -- 53
2020-05-23 08:00:00 17.3 0 Calma 5 Sudeste -- -- -- 52
2020-05-23 07:00:00 16.7 0 Calma 5 Oeste -- -- -- 52
2020-05-23 06:00:00 18.2 0 Calma 6 Este -- -- -- 46
2020-05-23 05:00:00 18.5 3 Este 6 Este -- -- -- 43
2020-05-23 04:00:00 18.7 4 Este 6 Este -- -- -- 43
2020-05-23 03:00:00 19.6 0 Calma 6 Este -- -- -- 43
2020-05-23 02:00:00 20.3 3 Este 6 Este -- -- -- 40
2020-05-23 01:00:00 21.3 3 Este 7 Nordeste -- -- -- 37
2020-05-23 00:00:00 21.4 3 Sudeste 8 Nordeste -- -- -- 36
2020-05-22 23:00:00 23 4 Nordeste 10 Noroeste -- -- -- 33
2020-05-22 22:00:00 24.5 2 Noroeste 16 Sudoeste -- -- -- 28
2020-05-22 21:00:00 26.1 5 Sur 20 Sur -- -- -- 27
2020-05-22 20:00:00 28 6 Sur 19 Sur -- -- -- 28
2020-05-22 19:00:00 29.7 6 Sur 19 Sur -- -- -- 28
2020-05-22 18:00:00 31 7 Sudoeste 21 Sudoeste -- -- -- 28
2020-05-22 17:00:00 32.2 6 Sudoeste 18 Sudoeste -- -- -- 30
2020-05-22 16:00:00 32.8 5 Sur 18 Oeste -- -- -- 25
2020-05-22 15:00:00 32.5 4 Sur 12 Sur -- -- -- 28
2020-05-22 14:00:00 30.9 3 Noroeste 13 Oeste -- -- -- 26
2020-05-22 13:00:00 29.7 3 Noroeste 9 Noroeste -- -- -- 33
2020-05-22 12:00:00 28.2 3 Oeste 6 Oeste -- -- -- 37
2020-05-22 11:00:00 24.4 3 Oeste 5 Sudoeste -- -- -- 42
2020-05-22 10:00:00 19.9 2 Oeste 5 Noroeste -- -- -- 53
2020-05-22 09:00:00 17.2 0 Calma 4 Norte -- -- -- 60
2020-05-22 08:00:00 16.4 0 Calma 6 Este -- -- -- 58
2020-05-22 07:00:00 15.9 2 Este 4 Este -- -- -- 57
2020-05-22 06:00:00 17 0 Calma 5 Este -- -- -- 52
2020-05-22 05:00:00 17.5 0 Calma 6 Este -- -- -- 50
2020-05-22 04:00:00 18 0 Calma 8 Nordeste -- -- -- 49
2020-05-22 03:00:00 20.5 5 Este 9 Este -- -- -- 40
2020-05-22 02:00:00 21 2 Este 8 Este -- -- -- 38
2020-05-22 01:00:00 19.8 2 Nordeste 4 Este -- -- -- 43
2020-05-22 00:00:00 20.4 2 Este 8 Este -- -- -- 40
2020-05-21 23:00:00 21.4 2 Este 6 Este -- -- -- 36
2020-05-21 22:00:00 22.4 2 Este 8 Sur -- -- -- 35
2020-05-21 21:00:00 25.4 4 Sur 17 Sur -- -- -- 28
2020-05-21 20:00:00 27.6 5 Sur 18 Sur -- -- -- 27
2020-05-21 19:00:00 28.8 6 Sur 17 Sudoeste -- -- -- 28
2020-05-21 18:00:00 29.9 6 Sudoeste 19 Sudoeste -- -- -- 25
2020-05-21 17:00:00 30.7 6 Sur 20 Sur -- -- -- 25
2020-05-21 16:00:00 31.9 5 Sudoeste 19 Sudoeste -- -- -- 29
2020-05-21 15:00:00 31.5 6 Sudoeste 17 Oeste -- -- -- 30
2020-05-21 14:00:00 29.6 5 Sudeste 12 Sudeste -- -- -- 28
2020-05-21 13:00:00 28.9 3 Noroeste 9 Oeste -- -- -- 29
2020-05-21 12:00:00 26.6 3 Noroeste 8 Oeste -- -- -- 40
2020-05-21 11:00:00 23.7 2 Noroeste 9 Oeste -- -- -- 43
2020-05-21 10:00:00 20.4 3 Noroeste 6 Oeste -- -- -- 52
2020-05-21 09:00:00 16.2 0 Calma 5 Este -- -- -- 63
2020-05-21 08:00:00 15.3 2 Este 6 Este -- -- -- 64
2020-05-21 07:00:00 15.1 0 Calma 4 Este -- -- -- 62
2020-05-21 06:00:00 16.7 2 Nordeste 7 Este -- -- -- 55
2020-05-21 05:00:00 16.5 0 Calma 6 Nordeste -- -- -- 56
2020-05-21 04:00:00 17.4 0 Calma 8 Este -- -- -- 52
2020-05-21 03:00:00 18.6 5 Este 8 Este -- -- -- 47
2020-05-21 02:00:00 18.6 3 Este 9 Norte -- -- -- 48
2020-05-21 01:00:00 20.8 3 Noroeste 11 Este -- -- -- 44
2020-05-21 00:00:00 20.9 4 Este 11 Este -- -- -- 42
2020-05-20 23:00:00 20.9 2 Sudeste 6 Nordeste -- -- -- 42
2020-05-20 22:00:00 23 3 Nordeste 13 Norte -- -- -- 39
2020-05-20 21:00:00 26.2 5 Norte 23 Norte -- -- -- 33
2020-05-20 20:00:00 27.8 8 Noroeste 24 Norte -- -- -- 26
2020-05-20 19:00:00 28.5 5 Noroeste 21 Noroeste -- -- -- 31
2020-05-20 18:00:00 29.3 7 Norte 22 Oeste -- -- -- 27
2020-05-20 17:00:00 29.5 5 Norte 17 Noroeste -- -- -- 25
2020-05-20 16:00:00 30.2 5 Noroeste 20 Norte -- -- -- 21
2020-05-20 15:00:00 29.9 6 Oeste 17 Oeste -- -- -- 22
2020-05-20 14:00:00 28.7 4 Oeste 12 Oeste -- -- -- 27
2020-05-20 13:00:00 27.5 3 Noroeste 9 Noroeste -- -- -- 34
2020-05-20 12:00:00 25 3 Noroeste 10 Oeste -- -- -- 43
2020-05-20 11:00:00 22.1 3 Noroeste 9 Oeste -- -- -- 48
2020-05-20 10:00:00 18.9 0 Calma 5 Noroeste -- -- -- 57
2020-05-20 09:00:00 14.8 0 Calma 3 Oeste -- -- -- 71
2020-05-20 08:00:00 14 3 Este 5 Este -- -- -- 71
2020-05-20 07:00:00 14.1 0 Calma 5 Sudeste -- -- -- 69
2020-05-20 06:00:00 14.6 2 Este 5 Este -- -- -- 67
2020-05-20 05:00:00 15.2 0 Calma 5 Nordeste -- -- -- 64
2020-05-20 04:00:00 16.4 0 Calma 6 Nordeste -- -- -- 59
2020-05-20 03:00:00 17.7 0 Calma 6 Sudeste -- -- -- 51
2020-05-20 02:00:00 17.9 2 Este 8 Sudeste -- -- -- 52
2020-05-20 01:00:00 18.6 3 Este 7 Sudeste -- -- -- 51
2020-05-20 00:00:00 20.6 2 Este 11 Este -- -- -- 44
2020-05-19 23:00:00 21 3 Este 9 Sudeste -- -- -- 45
2020-05-19 22:00:00 21.5 3 Nordeste 11 Noroeste -- -- -- 44
2020-05-19 21:00:00 25 5 Norte 14 Norte -- -- -- 37
2020-05-19 20:00:00 26.4 4 Oeste 14 Oeste -- -- -- 32
2020-05-19 19:00:00 27 4 Noroeste 14 Oeste -- -- -- 26
2020-05-19 18:00:00 27.4 5 Noroeste 15 Norte -- -- -- 29
2020-05-19 17:00:00 27.5 4 Noroeste 14 Noroeste -- -- -- 34
2020-05-19 16:00:00 27.8 5 Oeste 16 Noroeste -- -- -- 32
2020-05-19 15:00:00 27.4 5 Oeste 17 Oeste -- -- -- 33
2020-05-19 14:00:00 27.7 4 Oeste 14 Oeste -- -- -- 32
2020-05-19 13:00:00 25.6 3 Noroeste 12 Noroeste -- -- -- 39
2020-05-19 12:00:00 23.1 3 Noroeste 13 Noroeste -- -- -- 46
2020-05-19 11:00:00 21.4 3 Oeste 6 Oeste -- -- -- 52
2020-05-19 10:00:00 17 3 Noroeste 6 Noroeste -- -- -- 63
2020-05-19 09:00:00 14.4 0 Calma 4 Noroeste -- -- -- 71
2020-05-19 08:00:00 12.1 0 Calma 4 Este -- -- -- 77
2020-05-19 07:00:00 12.2 0 Calma 6 Este -- -- -- 74
2020-05-19 06:00:00 12.8 0 Calma 4 Sudeste -- -- -- 72
2020-05-19 05:00:00 13.6 4 Este 6 Nordeste -- -- -- 69
2020-05-19 04:00:00 13.8 2 Este 3 Sudeste -- -- -- 68
2020-05-19 03:00:00 14.4 2 Este 5 Este -- -- -- 66
2020-05-19 02:00:00 14.6 4 Este 6 Este -- -- -- 64
2020-05-19 01:00:00 15.5 3 Este 6 Este -- -- -- 62
2020-05-19 00:00:00 16.7 0 Calma 7 Nordeste -- -- -- 54
2020-05-18 23:00:00 18.2 4 Este 13 Este -- -- -- 46
2020-05-18 22:00:00 18.5 3 Nordeste 16 Norte -- -- -- 49
2020-05-18 21:00:00 21.9 6 Norte 21 Noroeste -- -- -- 41
2020-05-18 20:00:00 23.2 7 Noroeste 19 Noroeste -- -- -- 41
2020-05-18 19:00:00 23.4 5 Noroeste 18 Oeste -- -- -- 43
2020-05-18 18:00:00 24.8 5 Oeste 25 Noroeste -- -- -- 40
2020-05-18 17:00:00 24.9 8 Noroeste 20 Noroeste -- -- -- 39
2020-05-18 16:00:00 25.1 5 Noroeste 18 Oeste -- -- -- 38
2020-05-18 15:00:00 25 5 Oeste 13 Oeste -- -- -- 42
2020-05-18 14:00:00 23.2 4 Noroeste 13 Oeste -- -- -- 48
2020-05-18 13:00:00 21.4 4 Norte 11 Oeste -- -- -- 54
2020-05-18 12:00:00 19.6 3 Oeste 9 Sudoeste -- -- -- 63
2020-05-18 11:00:00 15.9 2 Sur 8 Oeste -- -- -- 70
2020-05-18 10:00:00 13.6 3 Oeste 7 Oeste -- -- -- 77
2020-05-18 09:00:00 10.4 0 Calma 4 Oeste -- -- -- 92
2020-05-18 08:00:00 9.4 0 Calma 4 Nordeste -- -- -- 92
2020-05-18 07:00:00 9.3 0 Calma 4 Este -- -- -- 92
2020-05-18 06:00:00 9.4 0 Calma 3 Este -- -- -- 91
2020-05-18 05:00:00 9.9 3 Este 5 Este -- -- -- 90
2020-05-18 04:00:00 10 0 Calma 4 Este -- -- -- 88
2020-05-18 03:00:00 10.7 0 Calma 5 Nordeste -- -- -- 84
2020-05-18 02:00:00 11.6 3 Este 6 Sudeste -- -- -- 82
2020-05-18 01:00:00 11.6 4 Este 6 Este -- -- -- 83
2020-05-18 00:00:00 12.4 3 Este 7 Este -- -- -- 77
2020-05-17 23:00:00 12.7 3 Este 7 Este -- -- -- 77
2020-05-17 22:00:00 13.5 0 Calma 6 Nordeste -- -- -- 75
2020-05-17 21:00:00 15.7 0 Calma 9 Oeste -- -- -- 63
2020-05-17 20:00:00 17.1 0 Calma 9 Sur -- -- -- 52
2020-05-17 19:00:00 17.2 3 Sudeste 12 Sur -- -- -- 58
2020-05-17 18:00:00 15.6 6 Sudeste 16 Sudeste -- -- -- 78
2020-05-17 17:00:00 13 4 Sudeste 12 Norte -- -- -- 88
2020-05-17 16:00:00 14.1 3 Este 26 Oeste -- -- -- 76
2020-05-17 15:00:00 19.9 4 Nordeste 9 Nordeste -- -- -- 52
2020-05-17 14:00:00 17.8 3 Norte 11 Noroeste -- -- -- 56
2020-05-17 13:00:00 17.1 3 Norte 9 Sudoeste -- -- -- 64
2020-05-17 12:00:00 16.8 4 Oeste 10 Oeste -- -- -- 68
2020-05-17 11:00:00 14.9 3 Sudoeste 8 Sudoeste -- -- -- 87
2020-05-17 10:00:00 12.2 2 Sudoeste 6 Sudoeste -- -- -- 93
2020-05-17 09:00:00 11.2 0 Calma 6 Sur -- -- -- 94
2020-05-17 08:00:00 10.4 0 Calma 3 Oeste -- -- -- 95
2020-05-17 07:00:00 10 2 Nordeste 3 Norte -- -- -- 95
2020-05-17 06:00:00 9.9 2 Este 4 Este -- -- -- 95
2020-05-17 05:00:00 10.2 3 Este 5 Nordeste -- -- -- 94
2020-05-17 04:00:00 10.9 0 Calma 5 Sudeste -- -- -- 94
2020-05-17 03:00:00 10.9 0 Calma 8 Norte -- -- -- 92
2020-05-17 02:00:00 11.7 2 Norte 8 Norte -- -- -- 90
2020-05-17 01:00:00 12 2 Nordeste 12 Sudeste -- -- -- 84
2020-05-17 00:00:00 12.4 3 Este 12 Nordeste -- -- -- 80
2020-05-16 23:00:00 11.5 2 Este 6 Este -- -- -- 87
2020-05-16 22:00:00 11.7 0 Calma 6 Nordeste -- -- -- 88
2020-05-16 21:00:00 12.9 3 Nordeste 5 Nordeste -- -- -- 84
2020-05-16 20:00:00 13.8 0 Calma 7 Sur -- -- -- 80
2020-05-16 19:00:00 13.6 0 Calma 12 Noroeste -- -- -- 82
2020-05-16 18:00:00 13 6 Noroeste 16 Noroeste -- -- -- 85
2020-05-16 17:00:00 13.6 5 Oeste 13 Oeste -- -- -- 86
2020-05-16 16:00:00 12.3 0 Calma 13 Sur -- -- -- 88
2020-05-16 15:00:00 18.3 6 Sur 20 Oeste -- -- -- 58
2020-05-16 14:00:00 19 3 Oeste 7 Noroeste -- -- -- 56
2020-05-16 13:00:00 15.2 2 Sudoeste 9 Oeste -- -- -- 69
2020-05-16 12:00:00 15.9 3 Sudoeste 10 Oeste -- -- -- 71
2020-05-16 11:00:00 13.6 2 Sudoeste 6 Sudoeste -- -- -- 80
2020-05-16 10:00:00 12.5 3 Noroeste 8 Oeste -- -- -- 86
2020-05-16 09:00:00 11.3 0 Calma 5 Sudoeste -- -- -- 92
2020-05-16 08:00:00 10.8 0 Calma 4 Noroeste -- -- -- 92
2020-05-16 07:00:00 10.8 2 Oeste 5 Noroeste -- -- -- 92
2020-05-16 06:00:00 10.8 0 Calma 4 Sur -- -- -- 92
2020-05-16 05:00:00 10.8 0 Calma 3 Este -- -- -- 92
2020-05-16 04:00:00 10.7 0 Calma 3 Norte -- -- -- 90
2020-05-16 03:00:00 11.4 0 Calma 4 Sur -- -- -- 90
2020-05-16 02:00:00 11.3 0 Calma 2 Sur -- -- -- 90
2020-05-16 01:00:00 11.4 0 Calma 5 Norte -- -- -- 89
2020-05-16 00:00:00 11.6 0 Calma 4 Norte -- -- -- 88
2020-05-15 23:00:00 11.8 0 Calma 6 Sur -- -- -- 85
2020-05-15 22:00:00 11.8 0 Calma 10 Noroeste -- -- -- 83
2020-05-15 21:00:00 12.6 3 Noroeste 15 Noroeste -- -- -- 76
2020-05-15 20:00:00 14 3 Noroeste 18 Norte -- -- -- 67
2020-05-15 19:00:00 14.5 3 Norte 13 Sudoeste -- -- -- 63
2020-05-15 18:00:00 15 5 Sur 15 Sudeste -- -- -- 63
2020-05-15 17:00:00 17 4 Sur 15 Sudoeste -- -- -- 55
2020-05-15 16:00:00 15.4 6 Sur 21 Sur -- -- -- 60
2020-05-15 15:00:00 17.8 5 Noroeste 15 Oeste -- -- -- 48
2020-05-15 14:00:00 18 5 Oeste 13 Oeste -- -- -- 50
2020-05-15 13:00:00 17.2 3 Noroeste 13 Noroeste -- -- -- 50
2020-05-15 12:00:00 15.7 5 Norte 14 Oeste -- -- -- 59
2020-05-15 11:00:00 14.4 3 Noroeste 13 Noroeste -- -- -- 60
2020-05-15 10:00:00 12 3 Noroeste 8 Sudoeste -- -- -- 72
2020-05-15 09:00:00 9.5 0 Calma 5 Nordeste -- -- -- 81
2020-05-15 08:00:00 8.7 0 Calma 6 Sur -- -- -- 84
2020-05-15 07:00:00 8.4 0 Calma 6 Oeste -- -- -- 84
2020-05-15 06:00:00 8.8 0 Calma 6 Este -- -- -- 79
2020-05-15 05:00:00 8.6 2 Este 5 Este -- -- -- 81
2020-05-15 04:00:00 9.3 0 Calma 6 Sudeste -- -- -- 79
2020-05-15 03:00:00 9.2 2 Este 5 Este -- -- -- 80
2020-05-15 02:00:00 9.1 0 Calma 5 Sudeste -- -- -- 80
2020-05-15 01:00:00 9.9 0 Calma 4 Este -- -- -- 76
2020-05-15 00:00:00 10.6 0 Calma 6 Oeste -- -- -- 73
2020-05-14 23:00:00 11.8 0 Calma 9 Oeste -- -- -- 67
2020-05-14 22:00:00 12 0 Calma 7 Sur -- -- -- 62
2020-05-14 21:00:00 12.8 2 Sudoeste 13 Sudoeste -- -- -- 59
2020-05-14 20:00:00 13.1 5 Sudoeste 19 Sudoeste -- -- -- 58
2020-05-14 19:00:00 14.2 6 Sur 24 Sur -- -- -- 55
2020-05-14 18:00:00 15.6 7 Sur 22 Oeste -- -- -- 49
2020-05-14 17:00:00 16.2 4 Sur 21 Sudoeste -- -- -- 58
2020-05-14 16:00:00 15.1 6 Sudoeste 20 Sudoeste -- -- -- 67
2020-05-14 15:00:00 11.4 5 Sur 22 Sudoeste -- -- -- 82
2020-05-14 14:00:00 12.6 9 Sur 25 Sudeste -- -- -- 75
2020-05-14 13:00:00 15.3 5 Sudoeste 24 Oeste -- -- -- 57
2020-05-14 12:00:00 13.4 6 Sudoeste 18 Oeste -- -- -- 64
2020-05-14 11:00:00 10.7 3 Sudoeste 17 Oeste -- -- -- 79
2020-05-14 10:00:00 9.8 2 Oeste 10 Oeste -- -- -- 92
2020-05-14 09:00:00 9 0 Calma 8 Oeste -- -- -- 94
2020-05-14 08:00:00 8.4 0 Calma 3 Sur -- -- -- 95
2020-05-14 07:00:00 8 0 Calma 4 Sur -- -- -- 94
2020-05-14 06:00:00 8.1 0 Calma 5 Sudeste -- -- -- 94
2020-05-14 05:00:00 8.5 0 Calma 4 Sudeste -- -- -- 93
2020-05-14 04:00:00 8.7 0 Calma 8 Noroeste -- -- -- 92
2020-05-14 03:00:00 9.5 4 Noroeste 18 Norte -- -- -- 91
2020-05-14 02:00:00 9.9 3 Noroeste 17 Oeste -- -- -- 90
2020-05-14 01:00:00 11 3 Oeste 10 Sudoeste -- -- -- 89
2020-05-14 00:00:00 11.2 3 Este 9 Este -- -- -- 84
2020-05-13 23:00:00 12.5 0 Calma 14 Noroeste -- -- -- 75
2020-05-13 22:00:00 14.4 3 Sudoeste 20 Sudoeste -- -- -- 58
2020-05-13 21:00:00 15.4 4 Oeste 15 Sudoeste -- -- -- 52
2020-05-13 20:00:00 16.3 3 Sur 22 Sudoeste -- -- -- 54
2020-05-13 19:00:00 17 6 Sudoeste 24 Sur -- -- -- 46
2020-05-13 18:00:00 19.3 8 Sur 24 Sudoeste -- -- -- 41
2020-05-13 17:00:00 20.5 8 Sur 27 Sur -- -- -- 35
2020-05-13 16:00:00 21.5 5 Sudoeste 15 Oeste -- -- -- 34
2020-05-13 15:00:00 20 4 Noroeste 15 Oeste -- -- -- 46
2020-05-13 14:00:00 18.6 4 Noroeste 16 Oeste -- -- -- 50
2020-05-13 13:00:00 18.4 3 Sudoeste 13 Oeste -- -- -- 48
2020-05-13 12:00:00 15.7 3 Noroeste 10 Oeste -- -- -- 62
2020-05-13 11:00:00 13.3 3 Sudoeste 8 Oeste -- -- -- 63
2020-05-13 10:00:00 11 0 Calma 6 Sur -- -- -- 77
2020-05-13 09:00:00 9.9 0 Calma 8 Sudoeste -- -- -- 84
2020-05-13 08:00:00 9.3 3 Oeste 10 Oeste -- -- -- 89
2020-05-13 07:00:00 9.1 0 Calma 3 Sudoeste -- -- -- 90
2020-05-13 06:00:00 9.5 0 Calma 4 Oeste -- -- -- 90
2020-05-13 05:00:00 9 0 Calma 4 Noroeste -- -- -- 90
2020-05-13 04:00:00 9.3 0 Calma 3 Noroeste -- -- -- 88
2020-05-13 03:00:00 10.3 0 Calma 8 Noroeste -- -- -- 84
2020-05-13 02:00:00 10.6 2 Oeste 8 Oeste -- -- -- 80
2020-05-13 01:00:00 10.7 0 Calma 9 Noroeste -- -- -- 82
2020-05-13 00:00:00 10.7 3 Noroeste 11 Norte -- -- -- 83
2020-05-12 23:00:00 9.8 0 Calma 5 Sudeste -- -- -- 86
2020-05-12 22:00:00 10.6 0 Calma 17 Noroeste -- -- -- 85
2020-05-12 21:00:00 11.6 5 Noroeste 19 Oeste -- -- -- 80
2020-05-12 20:00:00 12.9 5 Noroeste 20 Noroeste -- -- -- 73
2020-05-12 19:00:00 13.5 9 Noroeste 25 Oeste -- -- -- 71
2020-05-12 18:00:00 16 3 Sudoeste 13 Noroeste -- -- -- 70
2020-05-12 17:00:00 14.6 0 Calma 8 Nordeste -- -- -- 75
2020-05-12 16:00:00 14.8 3 Oeste 9 Noroeste -- -- -- 70
2020-05-12 15:00:00 14.8 3 Sudoeste 17 Sudeste -- -- -- 85
2020-05-12 14:00:00 8.5 7 Este 31 Sudeste -- -- -- 93
2020-05-12 13:00:00 8.2 4 Este 14 Sudeste -- -- -- 94
2020-05-12 12:00:00 9.4 3 Sudoeste 13 Sur -- -- -- 95
2020-05-12 11:00:00 9.4 3 Sudoeste 11 Oeste -- -- -- 94
2020-05-12 10:00:00 9.5 4 Oeste 10 Oeste -- -- -- 94
2020-05-12 09:00:00 9.9 2 Oeste 5 Oeste -- -- -- 93
2020-05-12 08:00:00 9.3 0 Calma 13 Este -- -- -- 91
2020-05-12 07:00:00 9.4 4 Sudeste 14 Sur -- -- -- 89
2020-05-12 06:00:00 11.7 3 Sur 17 Este -- -- -- 83
2020-05-12 05:00:00 14.1 4 Este 15 Sudeste -- -- -- 53
2020-05-12 04:00:00 12.6 3 Oeste 6 Este -- -- -- 77
2020-05-12 03:00:00 12.4 0 Calma 5 Sudeste -- -- -- 80
2020-05-12 02:00:00 12.3 2 Nordeste 6 Nordeste -- -- -- 80
2020-05-12 01:00:00 12.6 2 Este 5 Sudeste -- -- -- 78
2020-05-12 00:00:00 13.5 0 Calma 10 Sudoeste -- -- -- 74
2020-05-11 23:00:00 14.9 2 Sudoeste 11 Oeste -- -- -- 69
2020-05-11 22:00:00 16 3 Noroeste 12 Oeste -- -- -- 64
2020-05-11 21:00:00 16.8 4 Noroeste 12 Noroeste -- -- -- 62
2020-05-11 20:00:00 17.6 3 Noroeste 18 Oeste -- -- -- 61
2020-05-11 19:00:00 18.7 7 Oeste 21 Oeste -- -- -- 56
2020-05-11 18:00:00 20.5 8 Noroeste 27 Oeste -- -- -- 47
2020-05-11 17:00:00 20.3 5 Sudoeste 19 Oeste -- -- -- 45
2020-05-11 16:00:00 20.4 5 Oeste 17 Sudoeste -- -- -- 49
2020-05-11 15:00:00 20.4 5 Oeste 19 Oeste -- -- -- 46
2020-05-11 14:00:00 22.5 6 Sudoeste 20 Oeste -- -- -- 41
2020-05-11 13:00:00 21.2 5 Sudoeste 17 Sudoeste -- -- -- 43
2020-05-11 12:00:00 19.3 5 Sudoeste 13 Oeste -- -- -- 47
2020-05-11 11:00:00 15.9 5 Norte 13 Oeste -- -- -- 58
2020-05-11 10:00:00 14 0 Calma 7 Sur -- -- -- 67
2020-05-11 09:00:00 11.9 0 Calma 10 Sur -- -- -- 71
2020-05-11 08:00:00 10.5 0 Calma 5 Nordeste -- -- -- 78
2020-05-11 07:00:00 10.2 0 Calma 5 Oeste -- -- -- 79
2020-05-11 06:00:00 10.3 0 Calma 6 Sudoeste -- -- -- 80
2020-05-11 05:00:00 10.7 3 Sudoeste 13 Noroeste -- -- -- 80
2020-05-11 04:00:00 11.2 3 Sur 15 Oeste -- -- -- 78
2020-05-11 03:00:00 11.2 3 Oeste 12 Sudoeste -- -- -- 77
2020-05-11 02:00:00 11.7 3 Noroeste 10 Noroeste -- -- -- 72
2020-05-11 01:00:00 11.8 0 Calma 9 Oeste -- -- -- 76
2020-05-11 00:00:00 12.2 4 Oeste 20 Oeste -- -- -- 75
2020-05-10 23:00:00 13.2 7 Noroeste 22 Oeste -- -- -- 68
2020-05-10 22:00:00 13.5 5 Oeste 30 Noroeste -- -- -- 62
2020-05-10 21:00:00 14.2 6 Noroeste 23 Oeste -- -- -- 69
2020-05-10 20:00:00 15.2 9 Oeste 28 Oeste -- -- -- 60
2020-05-10 19:00:00 15.4 5 Oeste 20 Noroeste -- -- -- 65
2020-05-10 18:00:00 14.6 4 Oeste 25 Noroeste -- -- -- 77
2020-05-10 17:00:00 13.6 12 Oeste 35 Oeste -- -- -- 76
2020-05-10 16:00:00 15.8 3 Oeste 11 Sudeste -- -- -- 58
2020-05-10 15:00:00 14.2 3 Noroeste 9 Oeste -- -- -- 70
2020-05-10 14:00:00 12.2 4 Sudoeste 13 Noroeste -- -- -- 82
2020-05-10 13:00:00 10.7 3 Noroeste 20 Oeste -- -- -- 85
2020-05-10 12:00:00 12.8 4 Oeste 20 Sudoeste -- -- -- 70
2020-05-10 11:00:00 13 4 Oeste 14 Noroeste -- -- -- 71
2020-05-10 10:00:00 11.7 3 Sudoeste 13 Sur -- -- -- 81
2020-05-10 09:00:00 11 3 Sudoeste 16 Oeste -- -- -- 88
2020-05-10 08:00:00 10.2 4 Oeste 12 Oeste -- -- -- 91
2020-05-10 07:00:00 10.2 3 Oeste 12 Oeste -- -- -- 91
2020-05-10 06:00:00 10.2 3 Oeste 10 Oeste -- -- -- 91
2020-05-10 05:00:00 10.3 3 Sudoeste 16 Sudoeste -- -- -- 88
2020-05-10 04:00:00 10.9 3 Oeste 22 Noroeste -- -- -- 87
2020-05-10 03:00:00 11.9 2 Oeste 11 Sudoeste -- -- -- 88
2020-05-10 02:00:00 14 3 Sudoeste 9 Sudoeste -- -- -- 71
2020-05-10 01:00:00 14.2 3 Sudoeste 15 Oeste -- -- -- 66
2020-05-10 00:00:00 14.9 3 Sudoeste 19 Oeste -- -- -- 65
2020-05-09 23:00:00 15.9 4 Oeste 16 Noroeste -- -- -- 59
2020-05-09 22:00:00 16.6 5 Oeste 14 Oeste -- -- -- 59
2020-05-09 21:00:00 17.4 5 Oeste 19 Oeste -- -- -- 56
2020-05-09 20:00:00 19.5 6 Noroeste 22 Noroeste -- -- -- 49
2020-05-09 19:00:00 20.5 9 Oeste 25 Oeste -- -- -- 47
2020-05-09 18:00:00 21.1 6 Noroeste 27 Noroeste -- -- -- 47
2020-05-09 17:00:00 23.1 12 Noroeste 29 Oeste -- -- -- 43
2020-05-09 16:00:00 25.9 6 Oeste 21 Sudoeste -- -- -- 26
2020-05-09 15:00:00 23.7 5 Oeste 21 Oeste -- -- -- 43
2020-05-09 14:00:00 24.2 6 Oeste 17 Noroeste -- -- -- 44
2020-05-09 13:00:00 22.2 5 Noroeste 14 Oeste -- -- -- 50
2020-05-09 12:00:00 20.5 5 Noroeste 13 Norte -- -- -- 55
2020-05-09 11:00:00 18.1 6 Oeste 14 Noroeste -- -- -- 67
2020-05-09 10:00:00 16.7 3 Oeste 10 Oeste -- -- -- 77
2020-05-09 09:00:00 14.3 0 Calma 4 Nordeste -- -- -- 85
2020-05-09 08:00:00 13.7 2 Norte 6 Norte -- -- -- 87
2020-05-09 07:00:00 13.5 0 Calma 7 Sudeste -- -- -- 86
2020-05-09 06:00:00 14.1 0 Calma 6 Sudeste -- -- -- 84
2020-05-09 05:00:00 14.8 0 Calma 13 Oeste -- -- -- 81
2020-05-09 04:00:00 14.9 3 Norte 10 Norte -- -- -- 83
2020-05-09 03:00:00 15 0 Calma 9 Nordeste -- -- -- 81
2020-05-09 02:00:00 16.8 2 Este 6 Nordeste -- -- -- 77
2020-05-09 01:00:00 16.9 0 Calma 8 Sur -- -- -- 74
2020-05-09 00:00:00 17.7 4 Sur 12 Sur -- -- -- 71
2020-05-08 23:00:00 17.9 2 Sur 8 Sur -- -- -- 64
2020-05-08 22:00:00 19.1 0 Calma 10 Oeste -- -- -- 58
2020-05-08 21:00:00 22.1 3 Sudoeste 15 Sudoeste -- -- -- 47
2020-05-08 20:00:00 25.3 6 Sudoeste 23 Oeste -- -- -- 41
2020-05-08 19:00:00 27 6 Sudoeste 17 Oeste -- -- -- 37
2020-05-08 18:00:00 28.4 6 Sudoeste 19 Oeste -- -- -- 34
2020-05-08 17:00:00 28.3 4 Oeste 17 Noroeste -- -- -- 33
2020-05-08 16:00:00 28.5 7 Oeste 23 Noroeste -- -- -- 32
2020-05-08 15:00:00 28.7 6 Oeste 17 Oeste -- -- -- 27
2020-05-08 14:00:00 26.5 4 Noroeste 12 Oeste -- -- -- 32
2020-05-08 13:00:00 24.8 4 Noroeste 13 Norte -- -- -- 34
2020-05-08 12:00:00 22.9 4 Noroeste 13 Oeste -- -- -- 38
2020-05-08 11:00:00 20.5 3 Norte 10 Noroeste -- -- -- 43
2020-05-08 10:00:00 17.5 3 Norte 9 Norte -- -- -- 48
2020-05-08 09:00:00 15.5 2 Norte 10 Noroeste -- -- -- 58
2020-05-08 08:00:00 14.5 2 Norte 10 Sudeste -- -- -- 60
2020-05-08 07:00:00 14.1 3 Este 12 Nordeste -- -- -- 58
2020-05-08 06:00:00 14 3 Este 10 Oeste -- -- -- 62
2020-05-08 05:00:00 14.7 2 Nordeste 5 Este -- -- -- 55
2020-05-08 04:00:00 15.2 0 Calma 9 Nordeste -- -- -- 58
2020-05-08 03:00:00 15.2 2 Este 7 Este -- -- -- 57
2020-05-08 02:00:00 16.2 0 Calma 6 Noroeste -- -- -- 54
2020-05-08 01:00:00 16.5 0 Calma 6 Este -- -- -- 51
2020-05-08 00:00:00 17.6 3 Este 6 Norte -- -- -- 53
2020-05-07 23:00:00 19.2 3 Nordeste 9 Norte -- -- -- 52
2020-05-07 22:00:00 20.8 7 Nordeste 17 Nordeste -- -- -- 49
2020-05-07 21:00:00 22 3 Sur 10 Oeste -- -- -- 47
2020-05-07 20:00:00 24.7 4 Sudoeste 16 Sudoeste -- -- -- 42
2020-05-07 19:00:00 26.5 6 Sudoeste 17 Sudoeste -- -- -- 38
2020-05-07 18:00:00 27.7 4 Oeste 14 Oeste -- -- -- 35
2020-05-07 17:00:00 27.5 4 Sudoeste 20 Oeste -- -- -- 38
2020-05-07 16:00:00 27.8 6 Oeste 18 Oeste -- -- -- 29
2020-05-07 15:00:00 29.3 6 Sudoeste 19 Oeste -- -- -- 31
2020-05-07 14:00:00 27 4 Oeste 12 Oeste -- -- -- 33
2020-05-07 13:00:00 26.1 5 Oeste 13 Sur -- -- -- 38
2020-05-07 12:00:00 23.2 2 Oeste 9 Oeste -- -- -- 46
2020-05-07 11:00:00 22.7 2 Sudoeste 5 Sudoeste -- -- -- 46
2020-05-07 10:00:00 19.5 2 Norte 5 Norte -- -- -- 53
2020-05-07 09:00:00 17.9 0 Calma 4 Sudoeste -- -- -- 61
2020-05-07 08:00:00 16.5 0 Calma 7 Nordeste -- -- -- 63
2020-05-07 07:00:00 15.9 0 Calma 6 Este -- -- -- 65
2020-05-07 06:00:00 15.8 3 Este 6 Sudeste -- -- -- 64
2020-05-07 05:00:00 16.6 0 Calma 5 Nordeste -- -- -- 61
2020-05-07 04:00:00 17.4 3 Este 5 Este -- -- -- 55
2020-05-07 03:00:00 17.2 0 Calma 4 Sudeste -- -- -- 55
2020-05-07 02:00:00 18.3 3 Nordeste 5 Nordeste -- -- -- 49
2020-05-07 01:00:00 18.3 0 Calma 4 Sur -- -- -- 48
2020-05-07 00:00:00 19.1 0 Calma 7 Este -- -- -- 45
2020-05-06 23:00:00 20.9 3 Este 6 Nordeste -- -- -- 39
2020-05-06 22:00:00 21.2 0 Calma 4 Este -- -- -- 37
2020-05-06 21:00:00 24.2 0 Calma 8 Sur -- -- -- 28
2020-05-06 20:00:00 26.9 2 Noroeste 10 Oeste -- -- -- 30
2020-05-06 19:00:00 28.3 4 Sudoeste 13 Noroeste -- -- -- 25
2020-05-06 18:00:00 29 4 Noroeste 15 Oeste -- -- -- 25
2020-05-06 17:00:00 28.8 5 Oeste 17 Oeste -- -- -- 28
2020-05-06 16:00:00 29.4 4 Oeste 15 Oeste -- -- -- 30
2020-05-06 15:00:00 28.2 3 Noroeste 13 Oeste -- -- -- 31
2020-05-06 14:00:00 26.9 3 Noroeste 13 Oeste -- -- -- 35
2020-05-06 13:00:00 24.2 5 Noroeste 12 Oeste -- -- -- 43
2020-05-06 12:00:00 22 5 Oeste 12 Oeste -- -- -- 49
2020-05-06 11:00:00 19.3 3 Noroeste 8 Oeste -- -- -- 53
2020-05-06 10:00:00 16 0 Calma 4 Noroeste -- -- -- 65
2020-05-06 09:00:00 13.4 0 Calma 5 Este -- -- -- 75
2020-05-06 08:00:00 12.6 0 Calma 5 Este -- -- -- 76
2020-05-06 07:00:00 12.6 0 Calma 4 Norte -- -- -- 74
2020-05-06 06:00:00 14.3 0 Calma 6 Este -- -- -- 67
2020-05-06 05:00:00 14.8 3 Este 6 Este -- -- -- 65
2020-05-06 04:00:00 15 3 Este 6 Este -- -- -- 64
2020-05-06 03:00:00 15.5 0 Calma 5 Este -- -- -- 63
2020-05-06 02:00:00 16.1 2 Sudeste 6 Este -- -- -- 62
2020-05-06 01:00:00 16.8 0 Calma 4 Este -- -- -- 59
2020-05-06 00:00:00 17.8 2 Este 4 Nordeste -- -- -- 55
2020-05-05 23:00:00 18.9 0 Calma 5 Sur -- -- -- 52
2020-05-05 22:00:00 20.4 2 Sur 13 Oeste -- -- -- 47
2020-05-05 21:00:00 22.9 2 Sudoeste 21 Noroeste -- -- -- 42
2020-05-05 20:00:00 25.6 7 Oeste 23 Oeste -- -- -- 37
2020-05-05 19:00:00 27.2 5 Sudoeste 19 Noroeste -- -- -- 37
2020-05-05 18:00:00 27.7 8 Noroeste 24 Noroeste -- -- -- 31
2020-05-05 17:00:00 28.2 6 Noroeste 17 Oeste -- -- -- 30
2020-05-05 16:00:00 27.8 6 Noroeste 19 Noroeste -- -- -- 31
2020-05-05 15:00:00 28.8 6 Noroeste 18 Oeste -- -- -- 24
2020-05-05 14:00:00 26.7 4 Oeste 13 Oeste -- -- -- 35
2020-05-05 13:00:00 24.9 5 Noroeste 14 Norte -- -- -- 39
2020-05-05 12:00:00 23 3 Noroeste 10 Noroeste -- -- -- 54
2020-05-05 11:00:00 20 5 Noroeste 10 Noroeste -- -- -- 65
2020-05-05 10:00:00 16.6 2 Norte 6 Sur -- -- -- 73
2020-05-05 09:00:00 14.7 0 Calma 5 Sudoeste -- -- -- 80
2020-05-05 08:00:00 13.3 0 Calma 6 Sudeste -- -- -- 84
2020-05-05 07:00:00 13.3 0 Calma 3 Sur -- -- -- 85
2020-05-05 06:00:00 14 0 Calma 5 Sudeste -- -- -- 81
2020-05-05 05:00:00 14.7 0 Calma 8 Oeste -- -- -- 78
2020-05-05 04:00:00 15.2 3 Oeste 5 Oeste -- -- -- 76
2020-05-05 03:00:00 15.7 0 Calma 4 Este -- -- -- 77
2020-05-05 02:00:00 16.9 0 Calma 9 Noroeste -- -- -- 73
2020-05-05 01:00:00 18.3 0 Calma 9 Oeste -- -- -- 67
2020-05-05 00:00:00 19.6 0 Calma 6 Este -- -- -- 62
2020-05-04 23:00:00 21.4 3 Noroeste 12 Oeste -- -- -- 55
2020-05-04 22:00:00 22 0 Calma 5 Este -- -- -- 56
2020-05-04 21:00:00 24.5 3 Nordeste 25 Oeste -- -- -- 50
2020-05-04 20:00:00 27.4 9 Oeste 28 Oeste -- -- -- 36
2020-05-04 19:00:00 30.5 7 Sur 25 Sudoeste -- -- -- 25
2020-05-04 18:00:00 32.8 8 Sur 26 Sudoeste -- -- -- 23
2020-05-04 17:00:00 32.6 9 Sur 26 Sudoeste -- -- -- 23
2020-05-04 16:00:00 32.1 10 Sur 35 Sur -- -- -- 26
2020-05-04 15:00:00 33.1 10 Sur 28 Sur -- -- -- 24
2020-05-04 14:00:00 30.3 9 Sur 27 Sudoeste -- -- -- 29
2020-05-04 13:00:00 31 5 Norte 30 Nordeste -- -- -- 22
2020-05-04 12:00:00 28.9 4 Norte 14 Norte -- -- -- 30
2020-05-04 11:00:00 24.4 4 Norte 9 Norte -- -- -- 42
2020-05-04 10:00:00 22.3 0 Calma 4 Oeste -- -- -- 38
2020-05-04 09:00:00 19.7 0 Calma 7 Este -- -- -- 51
2020-05-04 08:00:00 18.7 2 Este 12 Sudeste -- -- -- 42
2020-05-04 07:00:00 18.3 0 Calma 6 Nordeste -- -- -- 41
2020-05-04 06:00:00 18.2 4 Este 7 Sudeste -- -- -- 42
2020-05-04 05:00:00 17.7 3 Este 7 Este -- -- -- 42
2020-05-04 04:00:00 18 0 Calma 8 Este -- -- -- 46
2020-05-04 03:00:00 18.7 2 Este 6 Este -- -- -- 44
2020-05-04 02:00:00 19.4 4 Este 6 Este -- -- -- 43
2020-05-04 01:00:00 19.8 3 Este 8 Este -- -- -- 41
2020-05-04 00:00:00 20.3 0 Calma 3 Oeste -- -- -- 41
2020-05-03 23:00:00 21.7 0 Calma 7 Este -- -- -- 39
2020-05-03 22:00:00 23 3 Este 7 Este -- -- -- 35
2020-05-03 21:00:00 25.8 2 Este 9 Sudoeste -- -- -- 35
2020-05-03 20:00:00 30.1 4 Sudoeste 11 Oeste -- -- -- 24
2020-05-03 19:00:00 31 3 Sudoeste 14 Oeste -- -- -- 24
2020-05-03 18:00:00 32.9 4 Noroeste 15 Sudoeste -- -- -- 22
2020-05-03 17:00:00 32.7 6 Sur 23 Sudoeste -- -- -- 20
2020-05-03 16:00:00 33.4 8 Sur 21 Sudoeste -- -- -- 17
2020-05-03 15:00:00 32.9 6 Sudoeste 19 Oeste -- -- -- 19
2020-05-03 14:00:00 31.9 5 Sudoeste 12 Oeste -- -- -- 25
2020-05-03 13:00:00 29.8 2 Sur 9 Nordeste -- -- -- 24
2020-05-03 12:00:00 26.8 4 Noroeste 12 Noroeste -- -- -- 36
2020-05-03 11:00:00 23.3 3 Noroeste 6 Norte -- -- -- 43
2020-05-03 10:00:00 18.2 2 Noroeste 5 Sudoeste -- -- -- 61
2020-05-03 09:00:00 14.9 0 Calma 5 Este -- -- -- 66
2020-05-03 08:00:00 13.7 0 Calma 6 Este -- -- -- 64
2020-05-03 07:00:00 14.1 0 Calma 4 Sudeste -- -- -- 63
2020-05-03 06:00:00 14.4 0 Calma 7 Este -- -- -- 62
2020-05-03 05:00:00 15.5 3 Sudeste 6 Este -- -- -- 54
2020-05-03 04:00:00 15.8 2 Este 7 Este -- -- -- 56
2020-05-03 03:00:00 17.4 0 Calma 6 Nordeste -- -- -- 49
2020-05-03 02:00:00 18.4 3 Este 7 Nordeste -- -- -- 43
2020-05-03 01:00:00 18.6 0 Calma 8 Este -- -- -- 46
2020-05-03 00:00:00 19.7 2 Este 9 Sur -- -- -- 44
2020-05-02 23:00:00 20.8 2 Este 6 Sudeste -- -- -- 44
2020-05-02 22:00:00 21.5 0 Calma 10 Nordeste -- -- -- 40
2020-05-02 21:00:00 25.2 3 Noroeste 18 Oeste -- -- -- 34
2020-05-02 20:00:00 27.9 7 Noroeste 19 Oeste -- -- -- 29
2020-05-02 19:00:00 28.8 5 Oeste 17 Noroeste -- -- -- 25
2020-05-02 18:00:00 31.1 5 Oeste 15 Oeste -- -- -- 19
2020-05-02 17:00:00 29.9 6 Oeste 15 Noroeste -- -- -- 22
2020-05-02 16:00:00 30.5 4 Oeste 17 Oeste -- -- -- 14
2020-05-02 15:00:00 27.8 6 Noroeste 12 Oeste -- -- -- 21
2020-05-02 14:00:00 26.9 4 Noroeste 12 Oeste -- -- -- 31
2020-05-02 13:00:00 25.3 4 Oeste 9 Oeste -- -- -- 39
2020-05-02 12:00:00 23.1 2 Noroeste 8 Oeste -- -- -- 48
2020-05-02 11:00:00 19.8 3 Noroeste 6 Oeste -- -- -- 58
2020-05-02 10:00:00 16.5 2 Noroeste 3 Noroeste -- -- -- 68
2020-05-02 09:00:00 12.5 0 Calma 4 Este -- -- -- 87
2020-05-02 08:00:00 12 2 Este 6 Este -- -- -- 87
2020-05-02 07:00:00 12 0 Calma 3 Este -- -- -- 85
2020-05-02 06:00:00 13 2 Este 5 Este -- -- -- 83
2020-05-02 05:00:00 13.2 0 Calma 6 Nordeste -- -- -- 82
2020-05-02 04:00:00 13.7 0 Calma 4 Este -- -- -- 80
2020-05-02 03:00:00 14.7 2 Este 5 Nordeste -- -- -- 76
2020-05-02 02:00:00 15.3 3 Este 6 Este -- -- -- 72
2020-05-02 01:00:00 15.3 2 Este 4 Sudeste -- -- -- 72
2020-05-02 00:00:00 16.7 2 Este 4 Nordeste -- -- -- 70
2020-05-01 23:00:00 17.7 2 Este 7 Oeste -- -- -- 66
2020-05-01 22:00:00 19.3 2 Noroeste 12 Noroeste -- -- -- 59
2020-05-01 21:00:00 21.5 6 Noroeste 20 Noroeste -- -- -- 52
2020-05-01 20:00:00 23.2 10 Noroeste 24 Norte -- -- -- 46
2020-05-01 19:00:00 24.7 8 Noroeste 21 Noroeste -- -- -- 40
2020-05-01 18:00:00 26.7 7 Noroeste 17 Noroeste -- -- -- 37
2020-05-01 17:00:00 25.9 6 Noroeste 22 Noroeste -- -- -- 41
2020-05-01 16:00:00 26 7 Noroeste 22 Norte -- -- -- 42
2020-05-01 15:00:00 25.3 9 Oeste 22 Oeste -- -- -- 42
2020-05-01 14:00:00 24.1 6 Noroeste 18 Noroeste -- -- -- 43
2020-05-01 13:00:00 21.6 6 Noroeste 14 Oeste -- -- -- 51
2020-05-01 12:00:00 19.6 3 Oeste 10 Oeste -- -- -- 61
2020-05-01 11:00:00 16.7 3 Oeste 10 Norte -- -- -- 71
2020-05-01 10:00:00 12.8 2 Sudoeste 6 Noroeste -- -- -- 84
2020-05-01 09:00:00 10.7 0 Calma 5 Norte -- -- -- 90
2020-05-01 08:00:00 9.9 0 Calma 4 Este -- -- -- 90
2020-05-01 07:00:00 10 2 Este 4 Sudeste -- -- -- 89
2020-05-01 06:00:00 10.3 0 Calma 4 Este -- -- -- 88
2020-05-01 05:00:00 10.6 0 Calma 5 Este -- -- -- 86
2020-05-01 04:00:00 11.1 3 Este 5 Este -- -- -- 84
2020-05-01 03:00:00 12 3 Este 5 Este -- -- -- 81
2020-05-01 02:00:00 11.9 0 Calma 6 Sudeste -- -- -- 81
2020-05-01 01:00:00 12 2 Sudeste 5 Este -- -- -- 82
2020-05-01 00:00:00 12.4 2 Sur 5 Sudeste -- -- -- 80
2020-04-30 23:00:00 14.3 2 Norte 9 Noroeste -- -- -- 71
2020-04-30 22:00:00 15.3 5 Norte 14 Noroeste -- -- -- 68
2020-04-30 21:00:00 16.9 6 Norte 16 Noroeste -- -- -- 61
2020-04-30 20:00:00 18.7 7 Norte 21 Norte -- -- -- 53
2020-04-30 19:00:00 19.3 8 Noroeste 20 Norte -- -- -- 54
2020-04-30 18:00:00 21.4 7 Noroeste 16 Norte -- -- -- 43
2020-04-30 17:00:00 20.5 4 Noroeste 15 Norte -- -- -- 44
2020-04-30 16:00:00 18.6 3 Norte 12 Oeste -- -- -- 53
2020-04-30 15:00:00 19.7 5 Noroeste 22 Oeste -- -- -- 49
2020-04-30 14:00:00 17.8 4 Norte 14 Oeste -- -- -- 56
2020-04-30 13:00:00 19 5 Sudoeste 11 Sudoeste -- -- -- 54
2020-04-30 12:00:00 16.3 3 Sur 7 Sudeste -- -- -- 61
2020-04-30 11:00:00 13.1 2 Oeste 9 Noroeste -- -- -- 73
2020-04-30 10:00:00 12 2 Sudoeste 9 Sudoeste -- -- -- 73
2020-04-30 09:00:00 10 0 Calma 3 Nordeste -- -- -- 83
2020-04-30 08:00:00 7.8 0 Calma 4 Sudeste -- -- -- 88
2020-04-30 07:00:00 7.8 0 Calma 3 Este -- -- -- 87
2020-04-30 06:00:00 8.3 0 Calma 4 Nordeste -- -- -- 85
2020-04-30 05:00:00 9.4 2 Este 4 Nordeste -- -- -- 81
2020-04-30 04:00:00 9.3 0 Calma 5 Este -- -- -- 82
2020-04-30 03:00:00 9.7 0 Calma 4 Este -- -- -- 81
2020-04-30 02:00:00 10.7 2 Este 4 Este -- -- -- 79
2020-04-30 01:00:00 11 0 Calma 4 Este -- -- -- 76
2020-04-30 00:00:00 11.9 0 Calma 4 Este -- -- -- 72
2020-04-29 23:00:00 13.1 3 Sudeste 8 Norte -- -- -- 66
2020-04-29 22:00:00 15 3 Noroeste 16 Oeste -- -- -- 57
2020-04-29 21:00:00 16.2 6 Noroeste 24 Noroeste -- -- -- 52
2020-04-29 20:00:00 18.4 8 Noroeste 23 Oeste -- -- -- 44
2020-04-29 19:00:00 20 8 Noroeste 27 Oeste -- -- -- 40
2020-04-29 18:00:00 22.4 8 Oeste 28 Oeste -- -- -- 39
2020-04-29 17:00:00 21.9 6 Oeste 19 Oeste -- -- -- 40
2020-04-29 16:00:00 22.3 5 Oeste 21 Oeste -- -- -- 42
2020-04-29 15:00:00 21.1 5 Oeste 19 Oeste -- -- -- 31
2020-04-29 14:00:00 20.4 3 Sudoeste 17 Oeste -- -- -- 42
2020-04-29 13:00:00 18.9 4 Oeste 13 Oeste -- -- -- 47
2020-04-29 12:00:00 17.8 4 Sudoeste 12 Oeste -- -- -- 53
2020-04-29 11:00:00 14 3 Oeste 10 Oeste -- -- -- 68
2020-04-29 10:00:00 11.2 3 Noroeste 9 Noroeste -- -- -- 85
2020-04-29 09:00:00 8.3 0 Calma 3 Nordeste -- -- -- 93
2020-04-29 08:00:00 7.8 0 Calma 2 Este -- -- -- 92
2020-04-29 07:00:00 8 0 Calma 5 Este -- -- -- 91
2020-04-29 06:00:00 8.3 0 Calma 5 Este -- -- -- 90
2020-04-29 05:00:00 8.8 0 Calma 5 Este -- -- -- 89
2020-04-29 04:00:00 9.3 0 Calma 5 Sudeste -- -- -- 87
2020-04-29 03:00:00 9.6 0 Calma 4 Este -- -- -- 87
2020-04-29 02:00:00 10.4 0 Calma 6 Este -- -- -- 83
2020-04-29 01:00:00 10.9 2 Este 4 Este -- -- -- 81
2020-04-29 00:00:00 11.7 0 Calma 4 Este -- -- -- 77
2020-04-28 23:00:00 12.2 0 Calma 8 Norte -- -- -- 73
2020-04-28 22:00:00 13.7 2 Nordeste 14 Noroeste -- -- -- 67
2020-04-28 21:00:00 15.5 7 Norte 16 Noroeste -- -- -- 59
2020-04-28 20:00:00 16.5 5 Noroeste 17 Norte -- -- -- 54
2020-04-28 19:00:00 17.3 5 Noroeste 23 Norte -- -- -- 51
2020-04-28 18:00:00 18.4 11 Oeste 28 Oeste -- -- -- 44
2020-04-28 17:00:00 19.7 9 Oeste 25 Oeste -- -- -- 41
2020-04-28 16:00:00 19.1 6 Oeste 15 Oeste -- -- -- 47
2020-04-28 15:00:00 18.8 5 Oeste 15 Oeste -- -- -- 48
2020-04-28 14:00:00 16.9 5 Noroeste 14 Oeste -- -- -- 53
2020-04-28 13:00:00 16.4 3 Sudoeste 10 Sudoeste -- -- -- 67
2020-04-28 12:00:00 14.2 3 Oeste 9 Noroeste 0.2 -- -- 75
2020-04-28 11:00:00 12.8 3 Norte 5 Norte 0 -- -- 80
2020-04-28 10:00:00 11.4 0 Calma 8 Sudoeste 0 -- -- 94
2020-04-28 09:00:00 10.5 0 Calma 4 Sur 0.2 -- -- 95
2020-04-28 08:00:00 9.9 0 Calma 4 Sur 0 -- -- 95
2020-04-28 07:00:00 9.9 0 Calma 2 Nordeste 0.2 -- -- 95
2020-04-28 06:00:00 10 0 Calma 3 Este 0 -- -- 95
2020-04-28 05:00:00 9.5 0 Calma 5 Este 0 -- -- 95
2020-04-28 04:00:00 9.6 0 Calma 5 Este 0.2 -- -- 95
2020-04-28 03:00:00 9.3 0 Calma 5 Este 0 -- -- 94
2020-04-28 02:00:00 9.7 0 Calma 4 Este 0.2 -- -- 94
2020-04-28 01:00:00 9.7 0 Calma 5 Este 0 -- -- 93
2020-04-28 00:00:00 10.1 2 Sudeste 5 Oeste 0.2 -- -- 92